createdAt,value
2022-10-10T00:00:48.433Z,45.77
2022-10-10T00:02:50.281Z,45.73
2022-10-10T00:04:52.192Z,45.57
2022-10-10T00:06:53.691Z,45.70
2022-10-10T00:08:55.180Z,45.62
2022-10-10T00:10:56.853Z,45.49
2022-10-10T00:13:03.013Z,46.12
2022-10-10T00:15:05.532Z,46.02
2022-10-10T00:17:07.023Z,47.13
2022-10-10T00:19:08.650Z,46.00
2022-10-10T00:21:10.428Z,45.90
2022-10-10T00:23:11.978Z,46.57
2022-10-10T00:25:13.802Z,46.19
2022-10-10T00:27:15.370Z,46.42
2022-10-10T00:29:18.431Z,46.43
2022-10-10T00:31:19.957Z,46.19
2022-10-10T00:33:21.719Z,46.64
2022-10-10T00:35:23.330Z,46.63
2022-10-10T00:37:25.166Z,46.26
2022-10-10T00:39:26.727Z,46.86
2022-10-10T00:41:28.370Z,47.72
2022-10-10T00:43:33.948Z,47.11
2022-10-10T00:45:40.980Z,46.86
2022-10-10T00:47:42.602Z,47.43
2022-10-10T00:49:44.609Z,47.53
2022-10-10T00:51:48.315Z,47.43
2022-10-10T00:53:52.826Z,47.64
2022-10-10T00:55:55.465Z,48.23
2022-10-10T00:58:00.035Z,48.24
2022-10-10T01:00:03.943Z,47.69
2022-10-10T01:02:07.117Z,47.95
2022-10-10T01:04:33.871Z,47.24
2022-10-10T01:06:35.378Z,47.54
2022-10-10T01:08:40.074Z,47.42
2022-10-10T01:10:52.800Z,47.19
2022-10-10T01:13:07.410Z,47.60
2022-10-10T01:15:17.848Z,47.03
2022-10-10T01:17:30.030Z,46.81
2022-10-10T01:20:06.888Z,47.18
2022-10-10T01:22:21.219Z,47.04
2022-10-10T01:24:50.342Z,47.02
2022-10-10T01:27:13.296Z,47.68
2022-10-10T01:29:24.514Z,47.19
2022-10-10T01:31:26.553Z,47.39
2022-10-10T01:33:36.620Z,46.11
2022-10-10T01:35:48.622Z,45.90
2022-10-10T01:37:57.963Z,45.70
2022-10-10T01:40:04.353Z,45.59
2022-10-10T01:42:10.113Z,45.32
2022-10-10T01:44:11.844Z,45.94
2022-10-10T01:46:17.503Z,46.16
2022-10-10T01:48:22.348Z,45.92
2022-10-10T01:50:26.126Z,46.24
2022-10-10T01:52:43.163Z,46.49
2022-10-10T01:54:55.351Z,46.20
2022-10-10T01:57:06.670Z,46.23
2022-10-10T01:59:19.066Z,46.30
2022-10-10T02:01:28.135Z,46.57
2022-10-10T02:03:32.691Z,47.07
2022-10-10T02:05:42.108Z,46.93
2022-10-10T02:07:47.427Z,47.08
2022-10-10T02:09:52.172Z,46.51
2022-10-10T02:11:55.117Z,46.97
2022-10-10T02:14:02.522Z,46.73
2022-10-10T02:16:08.649Z,47.21
2022-10-10T02:18:14.557Z,47.24
2022-10-10T02:20:20.388Z,47.76
2022-10-10T02:22:24.401Z,47.64
2022-10-10T02:24:25.897Z,47.39
2022-10-10T02:26:28.826Z,47.59
2022-10-10T02:28:36.555Z,47.87
2022-10-10T02:30:42.254Z,47.67
2022-10-10T02:32:47.185Z,47.75
2022-10-10T02:34:54.798Z,48.28
2022-10-10T02:37:02.760Z,47.79
2022-10-10T02:39:06.756Z,48.04
2022-10-10T02:41:11.518Z,48.02
2022-10-10T02:43:15.208Z,48.38
2022-10-10T02:45:18.939Z,47.79
2022-10-10T02:47:20.475Z,48.68
2022-10-10T02:49:33.345Z,48.74
2022-10-10T02:51:36.425Z,48.56
2022-10-10T02:53:38.450Z,47.57
2022-10-10T02:55:42.784Z,48.12
2022-10-10T02:57:44.344Z,48.09
2022-10-10T02:59:45.951Z,46.90
2022-10-10T03:01:47.660Z,46.85
2022-10-10T03:03:49.480Z,47.29
2022-10-10T03:05:51.099Z,47.23
2022-10-10T03:07:54.000Z,47.13
2022-10-10T03:09:55.531Z,47.62
2022-10-10T03:11:57.133Z,47.90
2022-10-10T03:13:58.635Z,48.15
2022-10-10T03:16:00.129Z,48.25
2022-10-10T03:18:01.705Z,48.44
2022-10-10T03:20:03.773Z,48.04
2022-10-10T03:22:05.442Z,47.68
2022-10-10T03:24:10.511Z,48.28
2022-10-10T03:26:14.152Z,48.32
2022-10-10T03:28:15.873Z,48.28
2022-10-10T03:30:17.486Z,48.71
2022-10-10T03:32:19.373Z,48.60
2022-10-10T03:34:20.856Z,48.50
2022-10-10T03:36:22.791Z,48.99
2022-10-10T03:38:24.498Z,48.70
2022-10-10T03:40:28.452Z,48.79
2022-10-10T03:42:30.280Z,48.84
2022-10-10T03:44:31.785Z,49.32
2022-10-10T03:46:33.338Z,49.43
2022-10-10T03:48:34.803Z,49.91
2022-10-10T03:50:36.609Z,49.82
2022-10-10T03:52:38.230Z,49.47
2022-10-10T03:54:39.796Z,49.39
2022-10-10T03:56:43.263Z,49.44
2022-10-10T03:58:44.962Z,49.79
2022-10-10T04:00:53.194Z,49.72
2022-10-10T04:02:54.760Z,49.62
2022-10-10T04:04:56.382Z,49.59
2022-10-10T04:06:58.091Z,49.33
2022-10-10T04:08:59.761Z,49.50
2022-10-10T04:11:01.248Z,49.62
2022-10-10T04:13:06.666Z,49.66
2022-10-10T04:15:09.169Z,49.74
2022-10-10T04:17:10.827Z,49.53
2022-10-10T04:19:12.378Z,49.41
2022-10-10T04:21:13.980Z,49.37
2022-10-10T04:23:15.526Z,49.15
2022-10-10T04:25:17.387Z,49.18
2022-10-10T04:27:19.096Z,49.14
2022-10-10T04:29:21.926Z,49.34
2022-10-10T04:31:23.591Z,49.82
2022-10-10T04:33:25.322Z,49.57
2022-10-10T04:35:26.900Z,49.71
2022-10-10T04:37:28.437Z,49.69
2022-10-10T04:39:30.087Z,49.62
2022-10-10T04:41:31.705Z,49.56
2022-10-10T04:43:33.237Z,49.72
2022-10-10T04:45:37.751Z,49.92
2022-10-10T04:47:39.415Z,49.85
2022-10-10T04:49:41.014Z,49.92
2022-10-10T04:51:42.801Z,50.64
2022-10-10T04:53:49.451Z,50.01
2022-10-10T04:55:51.961Z,49.69
2022-10-10T04:57:53.792Z,49.82
2022-10-10T04:59:55.372Z,49.84
2022-10-10T05:02:01.881Z,50.08
2022-10-10T05:04:04.063Z,49.82
2022-10-10T05:06:05.992Z,49.92
2022-10-10T05:08:07.518Z,49.75
2022-10-10T05:10:09.636Z,50.22
2022-10-10T05:12:11.158Z,49.78
2022-10-10T05:14:12.711Z,49.90
2022-10-10T05:16:14.295Z,49.62
2022-10-10T05:18:17.195Z,50.07
2022-10-10T05:20:21.139Z,49.91
2022-10-10T05:22:22.781Z,50.66
2022-10-10T05:24:24.440Z,49.81
2022-10-10T05:26:25.991Z,50.13
2022-10-10T05:28:27.702Z,50.65
2022-10-10T05:30:29.282Z,50.23
2022-10-10T05:32:30.827Z,50.41
2022-10-10T05:34:33.755Z,51.00
2022-10-10T05:36:35.298Z,50.31
2022-10-10T05:38:37.775Z,50.18
2022-10-10T05:40:39.658Z,51.21
2022-10-10T05:42:41.353Z,50.45
2022-10-10T05:44:42.892Z,51.02
2022-10-10T05:46:44.385Z,50.23
2022-10-10T05:48:46.021Z,50.76
2022-10-10T05:50:51.376Z,50.69
2022-10-10T05:52:53.615Z,50.68
2022-10-10T05:54:55.490Z,51.15
2022-10-10T05:56:57.131Z,50.74
2022-10-10T05:58:58.969Z,51.02
2022-10-10T06:01:03.504Z,51.41
2022-10-10T06:03:05.157Z,51.16
2022-10-10T06:05:09.719Z,51.64
2022-10-10T06:07:12.653Z,51.25
2022-10-10T06:09:14.196Z,50.92
2022-10-10T06:11:16.241Z,51.14
2022-10-10T06:13:24.079Z,52.03
2022-10-10T06:15:25.999Z,51.94
2022-10-10T06:17:27.693Z,51.80
2022-10-10T06:19:29.381Z,52.49
2022-10-10T06:21:31.238Z,52.03
2022-10-10T06:23:34.827Z,51.62
2022-10-10T06:25:41.609Z,51.48
2022-10-10T06:27:43.643Z,50.93
2022-10-10T06:29:45.457Z,50.88
2022-10-10T06:31:47.000Z,51.26
2022-10-10T06:33:48.776Z,51.63
2022-10-10T06:35:50.322Z,52.05
2022-10-10T06:37:51.966Z,52.28
2022-10-10T06:39:54.884Z,52.32
2022-10-10T06:41:56.544Z,52.04
2022-10-10T06:43:58.190Z,52.82
2022-10-10T06:45:59.771Z,52.61
2022-10-10T06:48:01.450Z,52.35
2022-10-10T06:50:03.530Z,53.35
2022-10-10T06:52:05.274Z,52.86
2022-10-10T06:54:07.249Z,52.77
2022-10-10T06:56:11.418Z,53.17
2022-10-10T06:58:12.961Z,52.90
2022-10-10T07:00:15.207Z,53.07
2022-10-10T07:02:16.761Z,53.11
2022-10-10T07:04:18.461Z,53.03
2022-10-10T07:06:20.700Z,53.06
2022-10-10T07:08:26.166Z,53.28
2022-10-10T07:10:27.810Z,53.08
2022-10-10T07:12:35.136Z,53.00
2022-10-10T07:14:41.262Z,53.54
2022-10-10T07:16:42.861Z,52.69
2022-10-10T07:18:44.728Z,51.97
2022-10-10T07:20:47.034Z,52.30
2022-10-10T07:22:48.773Z,52.34
2022-10-10T07:24:50.582Z,52.45
2022-10-10T07:27:02.415Z,52.46
2022-10-10T07:29:08.126Z,52.31
2022-10-10T07:31:11.016Z,52.99
2022-10-10T07:33:13.631Z,52.94
2022-10-10T07:35:15.266Z,52.88
2022-10-10T07:37:16.935Z,52.75
2022-10-10T07:39:19.877Z,53.14
2022-10-10T07:41:23.235Z,52.98
2022-10-10T07:43:24.796Z,53.42
2022-10-10T07:45:27.843Z,53.23
2022-10-10T07:47:29.501Z,53.17
2022-10-10T07:49:31.268Z,52.94
2022-10-10T07:51:32.845Z,53.40
2022-10-10T07:53:34.393Z,52.89
2022-10-10T07:55:38.964Z,52.97
2022-10-10T07:57:40.565Z,52.91
2022-10-10T07:59:42.148Z,52.69
2022-10-10T08:01:45.163Z,53.32
2022-10-10T08:03:47.528Z,53.10
2022-10-10T08:05:51.352Z,53.78
2022-10-10T08:07:53.549Z,53.33
2022-10-10T08:09:55.484Z,53.41
2022-10-10T08:11:57.293Z,54.26
2022-10-10T08:13:59.063Z,54.10
2022-10-10T08:16:01.685Z,54.06
2022-10-10T08:18:05.423Z,55.08
2022-10-10T08:20:07.342Z,54.82
2022-10-10T08:22:08.968Z,54.35
2022-10-10T08:24:10.621Z,54.49
2022-10-10T08:26:14.114Z,52.88
2022-10-10T08:28:16.049Z,52.88
2022-10-10T08:30:17.990Z,52.49
2022-10-10T08:32:19.678Z,52.38
2022-10-10T08:34:22.746Z,53.30
2022-10-10T08:36:24.821Z,52.37
2022-10-10T08:38:26.630Z,52.48
2022-10-10T08:40:28.301Z,53.36
2022-10-10T08:42:33.776Z,52.67
2022-10-10T08:44:42.448Z,51.52
2022-10-10T08:46:48.687Z,51.50
2022-10-10T08:48:53.612Z,51.58
2022-10-10T08:51:02.300Z,52.36
2022-10-10T08:53:09.401Z,51.43
2022-10-10T08:55:17.470Z,53.03
2022-10-10T08:57:26.061Z,50.87
2022-10-10T08:59:31.998Z,50.96
2022-10-10T09:01:36.399Z,50.82
2022-10-10T09:03:59.712Z,50.61
2022-10-10T09:06:17.346Z,49.88
2022-10-10T09:08:34.774Z,50.66
2022-10-10T09:10:49.788Z,50.16
2022-10-10T09:13:07.095Z,50.11
2022-10-10T09:15:14.984Z,51.28
2022-10-10T09:17:22.779Z,50.17
2022-10-10T09:19:38.788Z,49.68
2022-10-10T09:21:43.542Z,49.68
2022-10-10T09:23:51.548Z,49.70
2022-10-10T09:25:59.889Z,49.74
2022-10-10T09:28:08.009Z,49.15
2022-10-10T09:30:17.659Z,48.83
2022-10-10T09:32:23.992Z,48.95
2022-10-10T09:34:32.691Z,48.47
2022-10-10T09:36:37.147Z,48.51
2022-10-10T09:38:44.154Z,48.27
2022-10-10T09:40:49.640Z,47.88
2022-10-10T09:42:51.289Z,47.24
2022-10-10T09:44:53.126Z,47.70
2022-10-10T09:46:55.301Z,46.97
2022-10-10T09:48:58.046Z,47.25
2022-10-10T09:51:01.093Z,47.30
2022-10-10T09:53:03.151Z,47.17
2022-10-10T09:55:19.966Z,47.33
2022-10-10T09:57:25.765Z,46.90
2022-10-10T09:59:39.778Z,46.49
2022-10-10T10:01:41.421Z,45.52
2022-10-10T10:03:44.324Z,45.93
2022-10-10T10:05:55.146Z,46.01
2022-10-10T10:07:56.945Z,46.58
2022-10-10T10:10:01.434Z,45.37
2022-10-10T10:12:05.424Z,44.73
2022-10-10T10:14:20.237Z,43.63
2022-10-10T10:16:31.543Z,44.84
2022-10-10T10:18:40.225Z,44.28
2022-10-10T10:20:44.001Z,44.50
2022-10-10T10:22:47.293Z,44.07
2022-10-10T10:24:49.241Z,43.28
2022-10-10T10:26:51.075Z,43.44
2022-10-10T10:28:58.009Z,43.77
2022-10-10T10:31:00.135Z,43.39
2022-10-10T10:33:09.089Z,44.02
2022-10-10T10:35:20.652Z,43.46
2022-10-10T10:37:26.179Z,43.74
2022-10-10T10:39:44.830Z,41.27
2022-10-10T10:41:56.091Z,39.91
2022-10-10T10:44:14.427Z,38.73
2022-10-10T10:46:26.796Z,37.57
2022-10-10T10:48:39.749Z,37.83
2022-10-10T10:50:48.741Z,37.36
2022-10-10T10:52:59.045Z,35.95
2022-10-10T10:55:14.601Z,35.18
2022-10-10T10:57:59.987Z,33.16
2022-10-10T11:00:26.568Z,35.04
2022-10-10T11:02:56.001Z,33.42
2022-10-10T11:05:29.636Z,31.38
2022-10-10T11:07:44.936Z,31.83
2022-10-10T11:09:56.470Z,30.96
2022-10-10T11:12:05.460Z,31.86
2022-10-10T11:14:20.101Z,31.89
2022-10-10T11:16:48.352Z,32.43
2022-10-10T11:19:12.109Z,31.45
2022-10-10T11:21:17.154Z,33.06
2022-10-10T11:23:22.764Z,32.41
2022-10-10T11:25:29.868Z,32.07
2022-10-10T11:27:38.061Z,31.46
2022-10-10T11:29:51.468Z,30.56
2022-10-10T11:32:00.783Z,30.25
2022-10-10T11:34:09.448Z,30.34
2022-10-10T11:36:18.362Z,29.04
2022-10-10T11:38:25.301Z,28.31
2022-10-10T11:40:37.175Z,27.20
2022-10-10T11:42:48.715Z,26.95
2022-10-10T11:44:56.313Z,27.99
2022-10-10T11:47:06.953Z,25.82
2022-10-10T11:49:17.768Z,26.46
2022-10-10T11:51:30.021Z,25.28
2022-10-10T11:53:37.744Z,26.07
2022-10-10T11:55:45.366Z,25.72
2022-10-10T11:57:52.718Z,26.26
2022-10-10T11:59:59.067Z,24.84
2022-10-10T12:02:12.200Z,24.06
2022-10-10T12:04:13.983Z,24.68
2022-10-10T12:06:22.319Z,23.35
2022-10-10T12:08:31.356Z,23.74
2022-10-10T12:10:38.625Z,25.11
2022-10-10T12:12:44.579Z,24.45
2022-10-10T12:14:48.686Z,23.56
2022-10-10T12:16:51.156Z,26.05
2022-10-10T12:18:59.514Z,24.97
2022-10-10T12:21:07.519Z,25.17
2022-10-10T12:23:21.954Z,25.20
2022-10-10T12:25:35.279Z,27.03
2022-10-10T12:27:44.463Z,29.26
2022-10-10T12:30:03.835Z,28.40
2022-10-10T12:32:26.283Z,28.90
2022-10-10T12:34:46.586Z,30.33
2022-10-10T12:36:57.261Z,30.38
2022-10-10T12:39:37.052Z,31.61
2022-10-10T12:41:55.459Z,33.71
2022-10-10T12:44:19.972Z,33.91
2022-10-10T12:46:25.182Z,33.55
2022-10-10T12:48:27.475Z,33.30
2022-10-10T12:50:34.535Z,33.54
2022-10-10T12:52:46.454Z,33.97
2022-10-10T12:54:50.030Z,35.03
2022-10-10T12:57:00.488Z,35.17
2022-10-10T12:59:03.018Z,35.70
2022-10-10T13:01:08.944Z,35.63
2022-10-10T13:03:19.934Z,36.58
2022-10-10T13:05:28.002Z,34.19
2022-10-10T13:07:31.544Z,35.34
2022-10-10T13:09:35.874Z,35.79
2022-10-10T13:11:51.297Z,36.22
2022-10-10T13:13:55.021Z,36.58
2022-10-10T13:15:58.983Z,36.70
2022-10-10T13:18:00.856Z,37.41
2022-10-10T13:20:03.929Z,37.27
2022-10-10T13:22:05.530Z,37.08
2022-10-10T13:24:16.823Z,39.41
2022-10-10T13:26:22.475Z,37.45
2022-10-10T13:28:24.245Z,37.91
2022-10-10T13:30:26.710Z,37.18
2022-10-10T13:32:31.528Z,36.69
2022-10-10T13:34:36.656Z,37.49
2022-10-10T13:36:38.824Z,37.26
2022-10-10T13:38:40.323Z,39.04
2022-10-10T13:40:44.622Z,38.15
2022-10-10T13:42:47.526Z,38.16
2022-10-10T13:44:52.699Z,37.43
2022-10-10T13:46:54.331Z,37.97
2022-10-10T13:48:56.587Z,37.71
2022-10-10T13:51:07.471Z,38.42
2022-10-10T13:53:33.318Z,39.11
2022-10-10T13:55:37.971Z,37.79
2022-10-10T13:57:41.648Z,39.07
2022-10-10T13:59:45.344Z,38.22
2022-10-10T14:01:48.585Z,38.01
2022-10-10T14:03:51.679Z,38.83
2022-10-10T14:05:56.271Z,39.13
2022-10-10T14:07:58.786Z,37.97
2022-10-10T14:10:04.863Z,38.06
2022-10-10T14:12:15.281Z,38.30
2022-10-10T14:14:22.470Z,37.99
2022-10-10T14:16:26.097Z,38.78
2022-10-10T14:18:27.864Z,38.08
2022-10-10T14:20:29.587Z,38.41
2022-10-10T14:22:31.127Z,39.50
2022-10-10T14:24:32.732Z,39.04
2022-10-10T14:26:36.113Z,38.81
2022-10-10T14:28:39.278Z,40.07
2022-10-10T14:30:43.023Z,39.14
2022-10-10T14:32:45.088Z,41.04
2022-10-10T14:34:46.656Z,39.91
2022-10-10T14:36:50.029Z,39.71
2022-10-10T14:38:52.559Z,39.40
2022-10-10T14:40:55.097Z,38.76
2022-10-10T14:42:56.775Z,39.00
2022-10-10T14:44:58.427Z,39.07
2022-10-10T14:47:01.433Z,39.65
2022-10-10T14:49:03.717Z,39.71
2022-10-10T14:51:33.189Z,39.40
2022-10-10T14:53:31.436Z,42.53
2022-10-10T14:55:33.195Z,40.16
2022-10-10T14:57:34.955Z,39.10
2022-10-10T14:59:49.342Z,39.60
2022-10-10T15:01:53.383Z,39.22
2022-10-10T15:03:56.301Z,39.26
2022-10-10T15:05:58.282Z,39.23
2022-10-10T15:08:00.105Z,39.16
2022-10-10T15:10:32.785Z,38.73
2022-10-10T15:12:26.031Z,38.63
2022-10-10T15:14:27.689Z,38.39
2022-10-10T15:16:29.589Z,38.59
2022-10-10T15:18:53.341Z,39.30
2022-10-10T15:20:54.916Z,39.08
2022-10-10T15:22:57.337Z,39.43
2022-10-10T15:24:59.639Z,39.37
2022-10-10T15:27:01.585Z,40.28
2022-10-10T15:29:03.319Z,39.58
2022-10-10T15:31:06.080Z,39.69
2022-10-10T15:33:07.931Z,39.89
2022-10-10T15:35:13.557Z,39.17
2022-10-10T15:37:17.083Z,39.69
2022-10-10T15:39:18.984Z,40.39
2022-10-10T15:41:21.055Z,40.21
2022-10-10T15:43:22.687Z,40.00
2022-10-10T15:45:44.054Z,40.28
2022-10-10T15:47:46.745Z,40.29
2022-10-10T15:49:48.756Z,41.04
2022-10-10T15:51:50.369Z,40.87
2022-10-10T15:53:56.093Z,40.03
2022-10-10T15:55:57.862Z,39.50
2022-10-10T15:57:59.935Z,39.58
2022-10-10T16:00:02.098Z,41.18
2022-10-10T16:02:03.740Z,41.09
2022-10-10T16:04:06.000Z,41.60
2022-10-10T16:06:08.502Z,41.67
2022-10-10T16:08:10.957Z,41.56
2022-10-10T16:10:13.897Z,42.71
2022-10-10T16:12:15.691Z,41.59
2022-10-10T16:14:17.421Z,41.94
2022-10-10T16:16:21.579Z,43.28
2022-10-10T16:18:23.170Z,42.85
2022-10-10T16:20:38.104Z,42.43
2022-10-10T16:22:39.865Z,41.98
2022-10-10T16:24:42.800Z,42.67
2022-10-10T16:26:50.048Z,41.94
2022-10-10T16:28:52.573Z,42.43
2022-10-10T16:30:54.393Z,42.47
2022-10-10T16:32:56.149Z,43.45
2022-10-10T16:34:58.338Z,43.24
2022-10-10T16:37:00.205Z,43.14
2022-10-10T16:39:02.024Z,44.14
2022-10-10T16:41:04.817Z,43.61
2022-10-10T16:43:08.627Z,43.68
2022-10-10T16:45:11.515Z,43.53
2022-10-10T16:47:13.161Z,43.40
2022-10-10T16:49:14.889Z,43.87
2022-10-10T16:51:18.676Z,43.82
2022-10-10T16:53:20.513Z,44.61
2022-10-10T16:55:22.293Z,43.89
2022-10-10T16:57:24.046Z,44.14
2022-10-10T16:59:28.993Z,44.56
2022-10-10T17:01:31.416Z,44.68
2022-10-10T17:03:33.122Z,44.27
2022-10-10T17:05:34.917Z,44.15
2022-10-10T17:07:36.933Z,44.38
2022-10-10T17:09:38.850Z,45.17
2022-10-10T17:11:40.668Z,44.36
2022-10-10T17:13:42.860Z,44.26
2022-10-10T17:15:46.210Z,44.38
2022-10-10T17:17:48.071Z,44.58
2022-10-10T17:19:49.783Z,44.70
2022-10-10T17:21:51.590Z,44.59
2022-10-10T17:23:53.385Z,44.72
2022-10-10T17:25:55.010Z,44.47
2022-10-10T17:27:56.546Z,44.18
2022-10-10T17:29:58.265Z,44.52
2022-10-10T17:32:05.916Z,45.01
2022-10-10T17:34:08.187Z,44.74
2022-10-10T17:36:12.194Z,44.74
2022-10-10T17:38:35.031Z,44.84
2022-10-10T17:40:37.132Z,44.93
2022-10-10T17:42:38.875Z,45.08
2022-10-10T17:44:48.350Z,45.55
2022-10-10T17:46:53.025Z,45.36
2022-10-10T17:48:56.774Z,45.36
2022-10-10T17:50:59.149Z,45.80
2022-10-10T17:53:00.801Z,45.84
2022-10-10T17:55:02.571Z,46.30
2022-10-10T17:57:04.556Z,45.94
2022-10-10T17:59:07.432Z,46.33
2022-10-10T18:01:09.579Z,46.39
2022-10-10T18:03:12.328Z,47.38
2022-10-10T18:05:15.719Z,48.71
2022-10-10T18:07:17.464Z,50.17
2022-10-10T18:09:19.364Z,50.04
2022-10-10T18:11:25.011Z,50.10
2022-10-10T18:13:27.000Z,48.83
2022-10-10T18:15:28.883Z,48.97
2022-10-10T18:17:30.464Z,48.48
2022-10-10T18:19:32.640Z,48.85
2022-10-10T18:21:36.352Z,49.43
2022-10-10T18:23:38.570Z,50.04
2022-10-10T18:25:40.629Z,50.63
2022-10-10T18:27:42.680Z,51.24
2022-10-10T18:29:44.861Z,51.39
2022-10-10T18:31:47.375Z,51.72
2022-10-10T18:33:49.636Z,51.49
2022-10-10T18:35:51.318Z,51.72
2022-10-10T18:37:54.408Z,51.26
2022-10-10T18:39:56.003Z,51.08
2022-10-10T18:41:58.027Z,51.43
2022-10-10T18:44:00.864Z,51.48
2022-10-10T18:46:03.926Z,52.27
2022-10-10T18:48:06.182Z,53.02
2022-10-10T18:50:09.026Z,53.89
2022-10-10T18:52:10.584Z,54.06
2022-10-10T18:54:16.035Z,53.97
2022-10-10T18:56:19.623Z,54.45
2022-10-10T18:58:21.499Z,54.26
2022-10-10T19:00:23.347Z,54.44
2022-10-10T19:02:25.054Z,53.74
2022-10-10T19:04:26.850Z,53.42
2022-10-10T19:06:29.375Z,53.12
2022-10-10T19:08:31.120Z,52.65
2022-10-10T19:10:34.231Z,52.81
2022-10-10T19:12:38.750Z,52.52
2022-10-10T19:14:40.426Z,53.00
2022-10-10T19:16:43.281Z,51.85
2022-10-10T19:18:45.031Z,51.71
2022-10-10T19:20:48.894Z,51.51
2022-10-10T19:22:50.446Z,51.72
2022-10-10T19:24:52.075Z,51.62
2022-10-10T19:26:56.219Z,52.35
2022-10-10T19:28:57.983Z,53.08
2022-10-10T19:31:03.836Z,53.92
2022-10-10T19:33:06.134Z,56.54
2022-10-10T19:35:08.210Z,59.14
2022-10-10T19:37:09.992Z,58.72
2022-10-10T19:39:11.773Z,58.82
2022-10-10T19:41:15.372Z,58.09
2022-10-10T19:43:18.951Z,57.44
2022-10-10T19:45:20.932Z,57.58
2022-10-10T19:47:23.083Z,57.65
2022-10-10T19:49:24.801Z,59.01
2022-10-10T19:51:28.127Z,58.96
2022-10-10T19:53:29.939Z,58.51
2022-10-10T19:55:31.561Z,58.56
2022-10-10T19:57:33.123Z,58.07
2022-10-10T19:59:36.315Z,58.99
2022-10-10T20:01:38.081Z,59.26
2022-10-10T20:03:39.853Z,59.35
2022-10-10T20:05:41.498Z,59.35
2022-10-10T20:07:43.228Z,59.81
2022-10-10T20:09:45.347Z,60.39
2022-10-10T20:11:47.043Z,60.01
2022-10-10T20:13:49.988Z,59.99
2022-10-10T20:15:53.159Z,61.35
2022-10-10T20:17:54.722Z,61.65
2022-10-10T20:19:56.372Z,61.15
2022-10-10T20:21:58.008Z,61.21
2022-10-10T20:24:02.658Z,61.30
2022-10-10T20:26:13.049Z,62.28
2022-10-10T20:28:17.390Z,62.25
2022-10-10T20:30:21.846Z,62.02
2022-10-10T20:32:24.986Z,61.86
2022-10-10T20:34:26.876Z,61.82
2022-10-10T20:36:30.121Z,61.82
2022-10-10T20:38:31.780Z,61.50
2022-10-10T20:40:37.424Z,61.28
2022-10-10T20:42:38.992Z,61.17
2022-10-10T20:44:40.610Z,60.84
2022-10-10T20:46:44.109Z,60.59
2022-10-10T20:48:47.079Z,60.73
2022-10-10T20:50:48.783Z,60.37
2022-10-10T20:52:50.425Z,60.32
2022-10-10T20:54:54.787Z,60.24
2022-10-10T20:56:56.684Z,60.13
2022-10-10T20:58:58.791Z,60.49
2022-10-10T21:01:05.087Z,61.00
2022-10-10T21:03:06.631Z,60.45
2022-10-10T21:05:09.742Z,60.15
2022-10-10T21:07:11.388Z,61.01
2022-10-10T21:09:14.676Z,60.88
2022-10-10T21:11:18.522Z,60.97
2022-10-10T21:13:20.111Z,60.99
2022-10-10T21:15:21.669Z,61.36
2022-10-10T21:17:23.304Z,60.98
2022-10-10T21:19:24.891Z,60.99
2022-10-10T21:21:31.460Z,60.98
2022-10-10T21:23:36.137Z,60.98
2022-10-10T21:25:38.012Z,60.72
2022-10-10T21:27:39.534Z,60.48
2022-10-10T21:29:41.068Z,60.33
2022-10-10T21:31:45.263Z,60.51
2022-10-10T21:33:47.456Z,60.95
2022-10-10T21:35:51.580Z,60.65
2022-10-10T21:37:54.458Z,60.94
2022-10-10T21:39:56.053Z,60.82
2022-10-10T21:41:58.192Z,60.89
2022-10-10T21:44:00.322Z,61.48
2022-10-10T21:46:03.196Z,61.79
2022-10-10T21:48:06.875Z,61.34
2022-10-10T21:50:09.429Z,61.22
2022-10-10T21:52:11.393Z,61.76
2022-10-10T21:54:14.745Z,61.47
2022-10-10T21:56:16.813Z,61.97
2022-10-10T21:58:21.262Z,61.60
2022-10-10T22:00:23.096Z,62.26
2022-10-10T22:02:25.024Z,62.17
2022-10-10T22:04:29.165Z,62.11
2022-10-10T22:06:31.117Z,62.08
2022-10-10T22:08:33.113Z,62.19
2022-10-10T22:10:36.223Z,62.27
2022-10-10T22:12:38.297Z,61.96
2022-10-10T22:14:39.858Z,62.09
2022-10-10T22:16:41.454Z,61.96
2022-10-10T22:18:43.661Z,62.32
2022-10-10T22:20:45.440Z,61.73
2022-10-10T22:22:46.989Z,61.72
2022-10-10T22:24:48.630Z,61.52
2022-10-10T22:26:51.555Z,61.50
2022-10-10T22:28:53.353Z,62.15
2022-10-10T22:30:54.952Z,61.89
2022-10-10T22:32:56.512Z,61.78
2022-10-10T22:34:58.206Z,62.09
2022-10-10T22:36:59.770Z,61.75
2022-10-10T22:39:01.374Z,61.95
2022-10-10T22:41:03.111Z,61.50
2022-10-10T22:43:06.015Z,61.46
2022-10-10T22:45:08.270Z,62.24
2022-10-10T22:47:10.089Z,61.48
2022-10-10T22:49:11.921Z,60.98
2022-10-10T22:51:15.756Z,61.13
2022-10-10T22:53:17.450Z,61.50
2022-10-10T22:55:19.230Z,61.49
2022-10-10T22:57:21.022Z,61.20
2022-10-10T22:59:23.912Z,60.98
2022-10-10T23:01:26.487Z,61.51
2022-10-10T23:03:28.270Z,61.53
2022-10-10T23:05:29.791Z,61.26
2022-10-10T23:07:31.382Z,61.28
2022-10-10T23:09:33.288Z,61.74
2022-10-10T23:11:34.975Z,61.70
2022-10-10T23:13:37.098Z,61.04
2022-10-10T23:15:40.282Z,61.29
2022-10-10T23:17:41.894Z,61.72
2022-10-10T23:19:43.508Z,61.83
2022-10-10T23:21:45.353Z,62.10
2022-10-10T23:23:46.945Z,61.66
2022-10-10T23:25:48.636Z,61.55
2022-10-10T23:27:50.404Z,61.93
2022-10-10T23:29:52.080Z,62.35
2022-10-10T23:31:54.982Z,62.20
2022-10-10T23:33:56.506Z,61.90
2022-10-10T23:35:58.570Z,62.04
2022-10-10T23:38:00.213Z,62.18
2022-10-10T23:40:01.770Z,62.14
2022-10-10T23:42:03.359Z,61.56
2022-10-10T23:44:05.222Z,62.04
2022-10-10T23:46:07.617Z,61.51
2022-10-10T23:50:12.981Z,61.53
2022-10-10T23:52:14.598Z,61.71
2022-10-10T23:54:16.248Z,61.34
2022-10-10T23:56:17.818Z,61.36
2022-10-10T23:58:19.330Z,61.23
